createdAt,value
2022-12-25T00:02:11.628Z,3.00
2022-12-25T00:04:38.003Z,2.60
2022-12-25T00:07:04.387Z,2.38
2022-12-25T00:09:30.817Z,2.42
2022-12-25T00:11:57.199Z,2.45
2022-12-25T00:14:23.597Z,2.65
2022-12-25T00:16:49.972Z,2.83
2022-12-25T00:19:16.378Z,2.53
2022-12-25T00:21:42.714Z,2.35
2022-12-25T00:24:09.380Z,3.20
2022-12-25T00:26:35.736Z,1.98
2022-12-25T00:29:02.066Z,2.13
2022-12-25T00:31:28.470Z,2.58
2022-12-25T00:33:54.899Z,2.20
2022-12-25T00:36:22.103Z,2.60
2022-12-25T00:38:49.659Z,3.35
2022-12-25T00:41:43.270Z,3.10
2022-12-25T00:44:10.823Z,2.40
2022-12-25T00:46:37.333Z,2.63
2022-12-25T00:49:03.814Z,3.00
2022-12-25T00:51:30.169Z,2.80
2022-12-25T00:53:56.710Z,2.97
2022-12-25T00:56:23.140Z,2.53
2022-12-25T00:58:49.600Z,2.97
2022-12-25T01:01:16.059Z,3.53
2022-12-25T01:03:42.560Z,2.17
2022-12-25T01:06:10.937Z,3.60
2022-12-25T01:08:38.393Z,2.60
2022-12-25T01:11:06.691Z,3.13
2022-12-25T01:13:34.956Z,2.95
2022-12-25T01:16:11.370Z,3.60
2022-12-25T01:18:38.506Z,3.20
2022-12-25T01:21:11.825Z,3.47
2022-12-25T01:23:38.281Z,3.20
2022-12-25T01:26:09.122Z,3.50
2022-12-25T01:28:35.776Z,2.78
2022-12-25T01:31:02.549Z,2.92
2022-12-25T01:33:29.175Z,3.28
2022-12-25T01:35:55.557Z,3.58
2022-12-25T01:38:22.009Z,2.55
2022-12-25T01:40:48.345Z,3.42
2022-12-25T01:43:18.780Z,3.58
2022-12-25T01:45:46.587Z,3.53
2022-12-25T01:48:14.576Z,3.10
2022-12-25T01:50:43.204Z,4.28
2022-12-25T01:53:09.775Z,3.50
2022-12-25T01:55:36.711Z,3.30
2022-12-25T01:58:03.347Z,3.30
2022-12-25T02:00:29.780Z,3.53
2022-12-25T02:02:56.388Z,3.65
2022-12-25T02:05:24.976Z,3.35
2022-12-25T02:07:51.498Z,3.40
2022-12-25T02:10:18.363Z,3.10
2022-12-25T02:12:45.189Z,3.78
2022-12-25T02:15:16.884Z,2.75
2022-12-25T02:17:49.739Z,3.17
2022-12-25T02:20:28.244Z,3.85
2022-12-25T02:23:13.654Z,3.30
2022-12-25T02:25:40.055Z,3.35
2022-12-25T02:28:10.415Z,3.22
2022-12-25T02:30:49.970Z,3.05
2022-12-25T02:33:43.151Z,3.83
2022-12-25T02:36:14.133Z,3.00
2022-12-25T02:39:04.390Z,3.05
2022-12-25T02:41:32.459Z,3.20
2022-12-25T02:44:19.148Z,2.78
2022-12-25T02:47:03.923Z,2.90
2022-12-25T02:49:49.748Z,2.80
2022-12-25T02:52:37.692Z,2.85
2022-12-25T02:55:27.533Z,3.78
2022-12-25T02:58:14.889Z,4.38
2022-12-25T03:01:01.799Z,3.70
2022-12-25T03:03:49.366Z,3.83
2022-12-25T03:09:22.752Z,3.35
2022-12-25T03:11:53.907Z,2.92
2022-12-25T03:14:39.023Z,3.03
2022-12-25T03:17:05.515Z,3.08
2022-12-25T03:19:51.633Z,4.30
2022-12-25T03:22:47.091Z,3.28
2022-12-25T03:25:32.415Z,4.03
2022-12-25T03:27:59.287Z,3.58
2022-12-25T03:30:50.875Z,3.20
2022-12-25T03:33:44.609Z,3.45
2022-12-25T03:36:18.903Z,3.42
2022-12-25T03:38:47.954Z,3.67
2022-12-25T03:41:33.094Z,3.05
2022-12-25T03:44:23.913Z,3.20
2022-12-25T03:47:15.246Z,4.00
2022-12-25T03:50:05.122Z,3.63
2022-12-25T03:52:50.474Z,3.75
2022-12-25T03:55:36.788Z,3.95
2022-12-25T03:58:22.168Z,3.58
2022-12-25T04:01:07.111Z,3.63
2022-12-25T04:03:52.306Z,3.38
2022-12-25T04:06:37.194Z,4.03
2022-12-25T04:09:22.011Z,3.30
2022-12-25T04:12:06.929Z,3.55
2022-12-25T04:14:51.874Z,3.67
2022-12-25T04:17:36.745Z,4.03
2022-12-25T04:20:21.673Z,3.63
2022-12-25T04:23:06.580Z,4.07
2022-12-25T04:25:51.429Z,3.83
2022-12-25T04:28:36.170Z,4.13
2022-12-25T04:31:21.168Z,3.47
2022-12-25T04:34:06.257Z,3.33
2022-12-25T04:36:32.678Z,3.30
2022-12-25T04:38:59.028Z,3.92
2022-12-25T04:41:25.385Z,3.25
2022-12-25T04:43:51.781Z,3.63
2022-12-25T04:46:18.205Z,3.92
2022-12-25T04:48:44.690Z,3.88
2022-12-25T04:51:15.324Z,4.60
2022-12-25T04:53:42.080Z,3.95
2022-12-25T04:56:08.784Z,4.20
2022-12-25T04:58:35.188Z,3.28
2022-12-25T05:01:02.111Z,3.97
2022-12-25T05:03:28.935Z,3.67
2022-12-25T05:05:55.399Z,3.65
2022-12-25T05:08:21.818Z,3.60
2022-12-25T05:10:48.576Z,4.65
2022-12-25T05:13:15.218Z,4.18
2022-12-25T05:15:42.258Z,3.67
2022-12-25T05:18:08.738Z,4.57
2022-12-25T05:20:39.964Z,4.18
2022-12-25T05:23:06.900Z,3.63
2022-12-25T05:25:33.301Z,4.63
2022-12-25T05:27:59.694Z,3.38
2022-12-25T05:30:26.068Z,3.40
2022-12-25T05:32:52.460Z,4.80
2022-12-25T05:35:18.817Z,4.35
2022-12-25T05:37:45.193Z,3.75
2022-12-25T05:40:11.736Z,3.58
2022-12-25T05:42:38.147Z,3.53
2022-12-25T05:45:04.797Z,3.75
2022-12-25T05:47:31.172Z,3.10
2022-12-25T05:49:57.523Z,3.88
2022-12-25T05:52:23.907Z,3.83
2022-12-25T05:54:50.269Z,3.33
2022-12-25T05:57:16.663Z,4.65
2022-12-25T05:59:43.059Z,3.58
2022-12-25T06:02:09.488Z,3.28
2022-12-25T06:04:35.946Z,3.47
2022-12-25T06:07:02.332Z,4.28
2022-12-25T06:09:28.710Z,4.10
2022-12-25T06:11:55.105Z,3.53
2022-12-25T06:14:21.475Z,3.70
2022-12-25T06:16:50.781Z,3.70
2022-12-25T06:19:17.207Z,3.45
2022-12-25T06:21:43.565Z,2.92
2022-12-25T06:24:10.907Z,4.13
2022-12-25T06:26:38.833Z,3.92
2022-12-25T06:29:05.203Z,4.40
2022-12-25T06:31:31.879Z,3.67
2022-12-25T06:33:58.301Z,4.00
2022-12-25T06:36:26.029Z,3.58
2022-12-25T06:38:53.112Z,4.38
2022-12-25T06:41:21.657Z,3.55
2022-12-25T06:43:49.222Z,3.38
2022-12-25T06:46:15.743Z,4.20
2022-12-25T06:48:47.978Z,3.95
2022-12-25T06:51:14.391Z,4.13
2022-12-25T06:53:41.029Z,4.22
2022-12-25T06:56:18.222Z,4.57
2022-12-25T06:58:49.013Z,4.40
2022-12-25T07:01:19.961Z,5.07
2022-12-25T07:03:47.348Z,4.72
2022-12-25T07:06:13.797Z,3.85
2022-12-25T07:08:40.213Z,5.00
2022-12-25T07:11:06.884Z,4.90
2022-12-25T07:13:33.343Z,4.32
2022-12-25T07:16:00.824Z,3.45
2022-12-25T07:18:27.788Z,4.88
2022-12-25T07:20:55.806Z,4.82
2022-12-25T07:23:22.656Z,4.22
2022-12-25T07:25:55.799Z,4.28
2022-12-25T07:28:22.293Z,3.40
2022-12-25T07:30:48.779Z,3.47
2022-12-25T07:33:15.402Z,3.60
2022-12-25T07:35:41.806Z,3.33
2022-12-25T07:38:08.225Z,3.63
2022-12-25T07:40:34.656Z,4.03
2022-12-25T07:43:01.056Z,3.35
2022-12-25T07:45:27.489Z,4.82
2022-12-25T07:47:55.243Z,4.10
2022-12-25T07:52:48.198Z,4.03
2022-12-25T07:55:14.652Z,3.75
2022-12-25T07:57:41.045Z,4.70
2022-12-25T08:00:07.700Z,4.05
2022-12-25T08:02:34.288Z,4.38
2022-12-25T08:05:00.954Z,4.55
2022-12-25T08:07:27.399Z,5.07
2022-12-25T08:09:53.791Z,4.80
2022-12-25T08:12:20.171Z,4.38
2022-12-25T08:14:46.517Z,4.50
2022-12-25T08:17:12.986Z,4.60
2022-12-25T08:19:39.413Z,4.25
2022-12-25T08:22:05.908Z,4.50
2022-12-25T08:24:32.311Z,4.68
2022-12-25T08:26:58.720Z,4.25
2022-12-25T08:29:25.295Z,4.22
2022-12-25T08:31:51.999Z,5.07
2022-12-25T08:34:19.328Z,5.65
2022-12-25T08:36:45.831Z,4.03
2022-12-25T08:39:12.269Z,4.60
2022-12-25T08:41:38.877Z,4.13
2022-12-25T08:44:05.531Z,3.60
2022-12-25T08:46:32.063Z,3.60
2022-12-25T08:48:58.610Z,3.05
2022-12-25T08:51:25.922Z,3.03
2022-12-25T08:53:53.468Z,2.30
2022-12-25T08:56:20.177Z,2.92
2022-12-25T08:58:46.660Z,2.60
2022-12-25T09:01:13.554Z,2.17
2022-12-25T09:03:40.189Z,2.53
2022-12-25T09:06:10.891Z,2.10
2022-12-25T09:08:42.403Z,2.17
2022-12-25T09:11:14.055Z,2.15
2022-12-25T09:16:07.934Z,2.20
2022-12-25T09:18:34.360Z,1.77
2022-12-25T09:21:01.325Z,2.65
2022-12-25T09:23:28.193Z,3.30
2022-12-25T09:25:54.693Z,3.25
2022-12-25T09:28:21.702Z,3.00
2022-12-25T09:30:51.793Z,3.58
2022-12-25T09:33:18.707Z,3.53
2022-12-25T09:35:52.389Z,3.83
2022-12-25T09:38:18.766Z,3.42
2022-12-25T09:40:45.132Z,3.47
2022-12-25T09:43:15.818Z,4.00
2022-12-25T09:45:42.850Z,3.45
2022-12-25T09:48:12.212Z,4.07
2022-12-25T09:50:44.974Z,4.43
2022-12-25T09:53:20.687Z,3.58
2022-12-25T09:55:57.130Z,3.42
2022-12-25T09:58:23.657Z,3.53
2022-12-25T10:00:54.588Z,3.58
2022-12-25T10:03:24.043Z,4.63
2022-12-25T10:06:09.260Z,3.65
2022-12-25T10:08:43.373Z,4.07
2022-12-25T10:11:21.789Z,3.72
2022-12-25T10:14:00.327Z,4.32
2022-12-25T10:16:26.750Z,3.75
2022-12-25T10:18:57.816Z,3.70
2022-12-25T10:21:24.270Z,3.85
2022-12-25T10:24:10.875Z,3.60
2022-12-25T10:26:37.451Z,3.15
2022-12-25T10:29:03.835Z,3.55
2022-12-25T10:31:30.863Z,3.50
2022-12-25T10:33:58.021Z,3.42
2022-12-25T10:36:25.959Z,3.45
2022-12-25T10:38:52.447Z,3.15
2022-12-25T10:41:21.664Z,4.45
2022-12-25T10:43:52.788Z,3.75
2022-12-25T10:46:20.053Z,2.55
2022-12-25T10:48:51.297Z,3.22
2022-12-25T10:51:34.577Z,3.13
2022-12-25T10:54:02.068Z,2.47
2022-12-25T10:56:28.687Z,3.25
2022-12-25T10:59:05.246Z,2.67
2022-12-25T11:01:31.889Z,2.83
2022-12-25T11:03:58.656Z,2.50
2022-12-25T11:06:26.386Z,2.53
2022-12-25T11:08:57.274Z,2.47
2022-12-25T11:11:24.083Z,3.08
2022-12-25T11:14:01.475Z,2.30
2022-12-25T11:16:40.791Z,2.55
2022-12-25T11:19:22.603Z,2.20
2022-12-25T11:21:53.019Z,2.05
2022-12-25T11:24:20.968Z,1.80
2022-12-25T11:26:48.938Z,2.42
2022-12-25T11:29:30.348Z,1.90
2022-12-25T11:31:58.692Z,1.80
2022-12-25T11:34:25.051Z,1.80
2022-12-25T11:36:52.255Z,2.22
2022-12-25T11:39:24.562Z,2.28
2022-12-25T11:41:53.347Z,1.98
2022-12-25T11:44:32.750Z,2.10
2022-12-25T11:47:03.531Z,2.25
2022-12-25T11:49:30.614Z,2.35
2022-12-25T11:51:57.746Z,2.03
2022-12-25T11:54:24.135Z,2.03
2022-12-25T11:56:50.983Z,2.42
2022-12-25T11:59:33.023Z,2.28
2022-12-25T12:02:21.367Z,3.05
2022-12-25T12:04:51.018Z,2.30
2022-12-25T12:07:32.093Z,1.10
2022-12-25T12:09:58.524Z,2.20
2022-12-25T12:12:48.890Z,1.77
2022-12-25T12:15:37.602Z,2.13
2022-12-25T12:18:19.141Z,1.67
2022-12-25T12:20:45.585Z,1.80
2022-12-25T12:23:16.777Z,1.15
2022-12-25T12:25:44.439Z,0.80
2022-12-25T12:28:14.124Z,2.47
2022-12-25T12:30:40.724Z,2.85
2022-12-25T12:33:07.994Z,2.70
2022-12-25T12:35:36.685Z,1.40
2022-12-25T12:38:09.103Z,1.27
2022-12-25T12:40:38.536Z,1.70
2022-12-25T12:43:06.159Z,1.00
2022-12-25T12:45:34.666Z,0.50
2022-12-25T12:48:01.369Z,0.93
2022-12-25T12:50:27.792Z,1.10
2022-12-25T12:52:54.387Z,2.35
2022-12-25T12:55:31.140Z,5.68
2022-12-25T12:57:58.348Z,5.35
2022-12-25T13:00:25.199Z,4.70
2022-12-25T13:02:54.871Z,2.63
2022-12-25T13:05:34.688Z,2.40
2022-12-25T13:08:01.426Z,8.95
2022-12-25T13:10:39.281Z,2.85
2022-12-25T13:13:21.749Z,1.80
2022-12-25T13:15:49.827Z,1.20
2022-12-25T13:18:16.503Z,1.58
2022-12-25T13:21:00.869Z,1.17
2022-12-25T13:23:29.082Z,1.48
2022-12-25T13:25:56.694Z,1.63
2022-12-25T13:28:30.213Z,1.55
2022-12-25T13:31:07.176Z,1.00
2022-12-25T13:33:34.128Z,0.90
2022-12-25T13:36:00.725Z,1.00
2022-12-25T13:38:28.150Z,1.10
2022-12-25T13:41:14.232Z,1.00
2022-12-25T13:43:42.155Z,0.70
2022-12-25T13:48:35.198Z,0.57
2022-12-25T13:51:02.012Z,0.50
2022-12-25T13:53:28.481Z,0.70
2022-12-25T13:55:55.869Z,1.08
2022-12-25T13:58:27.268Z,1.08
2022-12-25T14:00:55.855Z,0.93
2022-12-25T14:03:23.937Z,1.45
2022-12-25T14:05:57.200Z,1.02
2022-12-25T14:08:25.533Z,0.88
2022-12-25T14:10:52.505Z,0.90
2022-12-25T14:13:21.047Z,1.00
2022-12-25T14:15:51.017Z,1.45
2022-12-25T14:18:18.227Z,1.48
2022-12-25T14:21:04.874Z,1.15
2022-12-25T14:23:39.385Z,1.48
2022-12-25T14:26:05.970Z,1.30
2022-12-25T14:28:34.219Z,1.08
2022-12-25T14:31:01.811Z,1.20
2022-12-25T14:33:31.222Z,1.20
2022-12-25T14:35:58.938Z,1.42
2022-12-25T14:38:29.435Z,1.55
2022-12-25T14:40:59.511Z,1.67
2022-12-25T14:43:27.287Z,1.80
2022-12-25T14:45:57.569Z,2.38
2022-12-25T14:48:31.149Z,2.28
2022-12-25T14:51:00.647Z,2.22
2022-12-25T14:53:36.228Z,2.20
2022-12-25T14:56:03.029Z,2.33
2022-12-25T14:58:31.221Z,1.63
2022-12-25T15:00:58.656Z,1.85
2022-12-25T15:03:45.432Z,1.92
2022-12-25T15:06:19.552Z,1.90
2022-12-25T15:09:15.399Z,1.92
2022-12-25T15:11:41.933Z,1.60
2022-12-25T15:14:08.319Z,1.83
2022-12-25T15:16:39.894Z,2.10
2022-12-25T15:19:07.186Z,1.88
2022-12-25T15:21:34.299Z,1.90
2022-12-25T15:24:00.829Z,1.70
2022-12-25T15:26:28.721Z,1.50
2022-12-25T15:31:28.999Z,1.38
2022-12-25T15:33:56.380Z,1.75
2022-12-25T15:36:23.566Z,1.88
2022-12-25T15:38:50.606Z,1.40
2022-12-25T15:41:41.361Z,1.70
2022-12-25T15:44:07.814Z,1.98
2022-12-25T15:46:34.690Z,2.40
2022-12-25T15:49:01.259Z,2.33
2022-12-25T15:51:27.652Z,2.45
2022-12-25T15:53:54.024Z,2.22
2022-12-25T15:56:20.980Z,2.40
2022-12-25T15:58:47.385Z,2.13
2022-12-25T16:01:15.434Z,1.85
2022-12-25T16:03:42.604Z,2.20
2022-12-25T16:06:12.739Z,2.43
2022-12-25T16:08:39.395Z,3.10
2022-12-25T16:11:05.962Z,2.58
2022-12-25T16:13:32.402Z,2.83
2022-12-25T16:15:58.953Z,2.83
2022-12-25T16:18:25.520Z,3.15
2022-12-25T16:20:57.861Z,3.63
2022-12-25T16:23:24.237Z,3.38
2022-12-25T16:25:50.616Z,3.40
2022-12-25T16:28:16.971Z,4.00
2022-12-25T16:30:43.497Z,3.38
2022-12-25T16:33:10.492Z,3.78
2022-12-25T16:35:36.855Z,3.67
2022-12-25T16:38:03.339Z,4.15
2022-12-25T16:40:29.656Z,4.38
2022-12-25T16:42:56.232Z,4.40
2022-12-25T16:45:22.816Z,3.78
2022-12-25T16:47:49.408Z,4.80
2022-12-25T16:50:16.399Z,4.78
2022-12-25T16:52:42.815Z,4.60
2022-12-25T16:55:09.771Z,5.63
2022-12-25T16:57:36.190Z,4.90
2022-12-25T17:00:02.670Z,4.93
2022-12-25T17:02:29.221Z,5.43
2022-12-25T17:04:55.840Z,5.47
2022-12-25T17:07:22.215Z,5.40
2022-12-25T17:09:49.209Z,5.78
2022-12-25T17:12:16.076Z,5.13
2022-12-25T17:14:42.437Z,4.72
2022-12-25T17:17:08.777Z,5.05
2022-12-25T17:19:35.119Z,4.25
2022-12-25T17:22:01.532Z,4.47
2022-12-25T17:24:28.773Z,4.18
2022-12-25T17:26:55.452Z,4.88
2022-12-25T17:29:22.880Z,4.95
2022-12-25T17:31:49.642Z,4.70
2022-12-25T17:34:16.100Z,4.63
2022-12-25T17:36:42.522Z,5.07
2022-12-25T17:39:10.333Z,4.40
2022-12-25T17:41:36.715Z,4.53
2022-12-25T17:44:03.158Z,4.50
2022-12-25T17:46:32.373Z,5.00
2022-12-25T17:48:59.546Z,4.95
2022-12-25T17:51:26.770Z,5.87
2022-12-25T17:53:54.863Z,4.97
2022-12-25T17:56:21.722Z,5.40
2022-12-25T17:58:51.809Z,5.18
2022-12-25T18:01:18.783Z,4.93
2022-12-25T18:03:46.098Z,5.47
2022-12-25T18:06:13.951Z,4.85
2022-12-25T18:08:41.073Z,4.75
2022-12-25T18:11:08.786Z,5.00
2022-12-25T18:13:35.336Z,5.20
2022-12-25T18:16:02.299Z,5.07
2022-12-25T18:18:28.974Z,4.43
2022-12-25T18:20:55.409Z,4.22
2022-12-25T18:23:21.831Z,3.70
2022-12-25T18:25:48.154Z,3.53
2022-12-25T18:28:14.511Z,3.92
2022-12-25T18:30:41.275Z,3.80
2022-12-25T18:33:07.654Z,3.38
2022-12-25T18:35:34.638Z,3.38
2022-12-25T18:38:01.002Z,2.70
2022-12-25T18:40:27.420Z,2.90
2022-12-25T18:42:59.366Z,2.65
2022-12-25T18:45:29.692Z,3.35
2022-12-25T18:47:56.178Z,2.20
2022-12-25T18:50:22.575Z,3.00
2022-12-25T18:52:51.678Z,2.53
2022-12-25T18:55:18.430Z,2.45
2022-12-25T18:57:44.813Z,2.20
2022-12-25T19:00:11.359Z,2.58
2022-12-25T19:02:37.931Z,2.85
2022-12-25T19:05:05.841Z,2.47
2022-12-25T19:07:32.269Z,2.78
2022-12-25T19:09:58.622Z,2.63
2022-12-25T19:12:25.001Z,2.38
2022-12-25T19:14:51.402Z,2.60
2022-12-25T19:17:17.776Z,2.78
2022-12-25T19:19:44.349Z,2.38
2022-12-25T19:22:10.759Z,3.38
2022-12-25T19:24:37.227Z,2.70
2022-12-25T19:27:04.032Z,2.35
2022-12-25T19:29:30.592Z,2.85
2022-12-25T19:31:57.178Z,3.13
2022-12-25T19:34:23.751Z,3.22
2022-12-25T19:36:50.324Z,3.45
2022-12-25T19:39:16.912Z,2.80
2022-12-25T19:41:44.435Z,2.63
2022-12-25T19:44:10.826Z,2.92
2022-12-25T19:46:38.795Z,3.00
2022-12-25T19:51:38.989Z,2.97
2022-12-25T19:54:05.990Z,3.42
2022-12-25T19:56:33.348Z,3.73
2022-12-25T19:59:00.124Z,3.30
2022-12-25T20:01:27.233Z,2.65
2022-12-25T20:03:53.780Z,3.30
2022-12-25T20:06:25.908Z,3.50
2022-12-25T20:08:53.595Z,3.08
2022-12-25T20:11:20.900Z,2.90
2022-12-25T20:13:47.349Z,2.30
2022-12-25T20:16:13.801Z,2.30
2022-12-25T20:18:40.326Z,2.65
2022-12-25T20:21:16.669Z,2.70
2022-12-25T20:23:43.323Z,2.22
2022-12-25T20:26:10.449Z,2.47
2022-12-25T20:28:37.143Z,3.17
2022-12-25T20:31:07.348Z,2.70
2022-12-25T20:33:34.124Z,1.98
2022-12-25T20:36:01.804Z,2.38
2022-12-25T20:38:28.527Z,2.08
2022-12-25T20:41:25.624Z,2.45
2022-12-25T20:43:45.916Z,1.63
2022-12-25T20:46:13.162Z,2.53
2022-12-25T20:48:39.720Z,2.60
2022-12-25T20:51:07.191Z,2.75
2022-12-25T20:53:33.513Z,1.60
2022-12-25T20:56:01.359Z,3.03
2022-12-25T20:58:28.078Z,1.90
2022-12-25T21:00:54.642Z,2.13
2022-12-25T21:03:21.157Z,1.88
2022-12-25T21:05:53.974Z,1.73
2022-12-25T21:08:22.468Z,2.15
2022-12-25T21:10:52.223Z,1.80
2022-12-25T21:13:22.417Z,2.00
2022-12-25T21:15:49.537Z,2.28
2022-12-25T21:18:16.708Z,2.70
2022-12-25T21:20:50.677Z,3.08
2022-12-25T21:23:17.699Z,3.15
2022-12-25T21:25:44.538Z,2.20
2022-12-25T21:28:11.190Z,2.60
2022-12-25T21:30:37.772Z,2.20
2022-12-25T21:33:22.943Z,2.22
2022-12-25T21:35:49.443Z,1.77
2022-12-25T21:38:16.118Z,2.20
2022-12-25T21:40:42.991Z,2.38
2022-12-25T21:43:11.619Z,3.10
2022-12-25T21:45:38.000Z,2.55
2022-12-25T21:48:04.587Z,2.67
2022-12-25T21:50:49.714Z,2.85
2022-12-25T21:53:17.124Z,2.80
2022-12-25T21:55:43.571Z,2.20
2022-12-25T21:58:10.116Z,2.78
2022-12-25T22:00:36.471Z,2.35
2022-12-25T22:03:03.090Z,2.30
2022-12-25T22:05:48.118Z,2.22
2022-12-25T22:08:14.561Z,2.30
2022-12-25T22:10:40.892Z,2.20
2022-12-25T22:13:27.320Z,2.63
2022-12-25T22:16:12.566Z,2.25
2022-12-25T22:18:57.428Z,2.60
2022-12-25T22:21:23.765Z,2.53
2022-12-25T22:23:50.255Z,1.92
2022-12-25T22:26:20.839Z,3.00
2022-12-25T22:28:47.500Z,1.90
2022-12-25T22:31:14.276Z,2.03
2022-12-25T22:33:40.887Z,2.65
2022-12-25T22:36:07.801Z,2.60
2022-12-25T22:38:34.239Z,2.13
2022-12-25T22:41:07.066Z,2.03
2022-12-25T22:44:06.776Z,2.10
2022-12-25T22:46:19.834Z,2.20
2022-12-25T22:48:46.214Z,2.13
2022-12-25T22:51:12.880Z,1.45
2022-12-25T22:53:39.217Z,2.17
2022-12-25T22:56:07.792Z,2.28
2022-12-25T22:58:34.127Z,2.28
2022-12-25T23:01:00.752Z,1.88
2022-12-25T23:03:27.142Z,1.92
2022-12-25T23:05:56.734Z,2.15
2022-12-25T23:08:23.663Z,1.95
2022-12-25T23:10:50.042Z,2.05
2022-12-25T23:13:35.927Z,2.70
2022-12-25T23:16:02.576Z,2.13
2022-12-25T23:18:47.624Z,2.17
2022-12-25T23:21:33.609Z,1.40
2022-12-25T23:24:18.457Z,2.47
2022-12-25T23:26:44.818Z,1.85
2022-12-25T23:29:29.565Z,2.20
2022-12-25T23:31:57.084Z,1.80
2022-12-25T23:34:23.545Z,1.88
2022-12-25T23:36:49.919Z,1.95
2022-12-25T23:39:16.276Z,2.13
2022-12-25T23:41:43.362Z,1.73
2022-12-25T23:44:10.350Z,2.20
2022-12-25T23:46:36.880Z,2.08
2022-12-25T23:49:03.318Z,2.03
2022-12-25T23:51:29.624Z,2.03
2022-12-25T23:53:55.950Z,2.05
2022-12-25T23:56:22.331Z,2.47
2022-12-25T23:58:51.923Z,2.72
